sensor_id;sensor_type;location;lat;lon;timestamp;temperature;humidity
33955;DHT22;20233;50.804;7.126;2024-03-08T00:00:11;5.10;99.90
33955;DHT22;20233;50.804;7.126;2024-03-08T00:02:39;5.10;99.90
33955;DHT22;20233;50.804;7.126;2024-03-08T00:05:06;5.00;99.90
33955;DHT22;20233;50.804;7.126;2024-03-08T00:07:33;5.00;99.90
33955;DHT22;20233;50.804;7.126;2024-03-08T00:09:58;5.00;99.90
33955;DHT22;20233;50.804;7.126;2024-03-08T00:12:24;4.90;99.90
33955;DHT22;20233;50.804;7.126;2024-03-08T00:14:51;4.90;99.90
33955;DHT22;20233;50.804;7.126;2024-03-08T00:17:17;4.80;99.90
33955;DHT22;20233;50.804;7.126;2024-03-08T00:19:42;4.90;99.90
33955;DHT22;20233;50.804;7.126;2024-03-08T00:22:08;4.90;99.90
33955;DHT22;20233;50.804;7.126;2024-03-08T00:24:35;4.80;99.90
33955;DHT22;20233;50.804;7.126;2024-03-08T00:27:00;4.80;99.90
33955;DHT22;20233;50.804;7.126;2024-03-08T00:29:27;4.80;99.90
33955;DHT22;20233;50.804;7.126;2024-03-08T00:31:52;4.80;99.90
33955;DHT22;20233;50.804;7.126;2024-03-08T00:34:18;4.80;99.90
33955;DHT22;20233;50.804;7.126;2024-03-08T00:36:44;4.70;99.90
33955;DHT22;20233;50.804;7.126;2024-03-08T00:39:09;4.70;99.90
33955;DHT22;20233;50.804;7.126;2024-03-08T00:41:35;4.70;99.90
33955;DHT22;20233;50.804;7.126;2024-03-08T00:44:00;4.70;99.90
33955;DHT22;20233;50.804;7.126;2024-03-08T00:46:26;4.70;99.90
33955;DHT22;20233;50.804;7.126;2024-03-08T00:48:53;4.70;99.90
33955;DHT22;20233;50.804;7.126;2024-03-08T00:51:18;4.60;99.90
33955;DHT22;20233;50.804;7.126;2024-03-08T00:53:44;4.60;99.90
33955;DHT22;20233;50.804;7.126;2024-03-08T00:56:09;4.60;99.90
33955;DHT22;20233;50.804;7.126;2024-03-08T00:58:37;4.60;99.90
33955;DHT22;20233;50.804;7.126;2024-03-08T01:01:03;4.60;99.90
33955;DHT22;20233;50.804;7.126;2024-03-08T01:03:33;4.50;99.90
33955;DHT22;20233;50.804;7.126;2024-03-08T01:05:59;4.40;99.90
33955;DHT22;20233;50.804;7.126;2024-03-08T01:08:26;4.40;99.90
33955;DHT22;20233;50.804;7.126;2024-03-08T01:10:53;4.40;99.90
33955;DHT22;20233;50.804;7.126;2024-03-08T01:13:18;4.30;99.90
33955;DHT22;20233;50.804;7.126;2024-03-08T01:15:44;4.20;99.90
33955;DHT22;20233;50.804;7.126;2024-03-08T01:18:10;4.20;99.90
33955;DHT22;20233;50.804;7.126;2024-03-08T01:20:36;4.20;99.90
33955;DHT22;20233;50.804;7.126;2024-03-08T01:23:01;4.10;99.90
33955;DHT22;20233;50.804;7.126;2024-03-08T01:25:27;4.10;99.90
33955;DHT22;20233;50.804;7.126;2024-03-08T01:27:52;4.10;99.90
33955;DHT22;20233;50.804;7.126;2024-03-08T01:30:19;4.00;99.90
33955;DHT22;20233;50.804;7.126;2024-03-08T01:32:45;4.00;99.90
33955;DHT22;20233;50.804;7.126;2024-03-08T01:35:10;4.00;99.90
33955;DHT22;20233;50.804;7.126;2024-03-08T01:37:36;3.90;99.90
33955;DHT22;20233;50.804;7.126;2024-03-08T01:40:02;4.10;99.90
33955;DHT22;20233;50.804;7.126;2024-03-08T01:42:29;4.10;99.90
33955;DHT22;20233;50.804;7.126;2024-03-08T01:44:54;4.00;99.90
33955;DHT22;20233;50.804;7.126;2024-03-08T01:47:21;4.10;99.90
33955;DHT22;20233;50.804;7.126;2024-03-08T01:49:49;4.10;99.90
33955;DHT22;20233;50.804;7.126;2024-03-08T01:52:15;4.10;99.90
33955;DHT22;20233;50.804;7.126;2024-03-08T01:54:41;4.10;99.90
33955;DHT22;20233;50.804;7.126;2024-03-08T01:57:07;4.00;99.90
33955;DHT22;20233;50.804;7.126;2024-03-08T01:59:33;4.00;99.90
33955;DHT22;20233;50.804;7.126;2024-03-08T02:02:01;4.00;99.90
33955;DHT22;20233;50.804;7.126;2024-03-08T02:04:29;3.90;99.90
33955;DHT22;20233;50.804;7.126;2024-03-08T02:06:56;3.90;99.90
33955;DHT22;20233;50.804;7.126;2024-03-08T02:09:23;4.00;99.90
33955;DHT22;20233;50.804;7.126;2024-03-08T02:11:50;4.00;99.90
33955;DHT22;20233;50.804;7.126;2024-03-08T02:14:17;4.00;99.90
33955;DHT22;20233;50.804;7.126;2024-03-08T02:16:44;4.00;99.90
33955;DHT22;20233;50.804;7.126;2024-03-08T02:19:09;3.90;99.90
33955;DHT22;20233;50.804;7.126;2024-03-08T02:21:35;3.80;99.90
33955;DHT22;20233;50.804;7.126;2024-03-08T02:24:01;3.80;99.90
33955;DHT22;20233;50.804;7.126;2024-03-08T02:26:27;3.80;99.90
33955;DHT22;20233;50.804;7.126;2024-03-08T02:28:53;3.70;99.90
33955;DHT22;20233;50.804;7.126;2024-03-08T02:31:19;3.70;99.90
33955;DHT22;20233;50.804;7.126;2024-03-08T02:33:46;3.70;99.90
33955;DHT22;20233;50.804;7.126;2024-03-08T02:36:13;3.60;99.90
33955;DHT22;20233;50.804;7.126;2024-03-08T02:38:38;3.60;99.90
33955;DHT22;20233;50.804;7.126;2024-03-08T02:41:06;3.50;99.90
33955;DHT22;20233;50.804;7.126;2024-03-08T02:43:31;3.50;99.90
33955;DHT22;20233;50.804;7.126;2024-03-08T02:45:57;3.50;99.90
33955;DHT22;20233;50.804;7.126;2024-03-08T02:48:23;3.50;99.90
33955;DHT22;20233;50.804;7.126;2024-03-08T02:50:48;3.30;99.90
33955;DHT22;20233;50.804;7.126;2024-03-08T02:53:16;3.40;99.90
33955;DHT22;20233;50.804;7.126;2024-03-08T02:55:41;3.40;99.90
33955;DHT22;20233;50.804;7.126;2024-03-08T02:58:07;3.50;99.90
33955;DHT22;20233;50.804;7.126;2024-03-08T03:00:37;3.40;99.90
33955;DHT22;20233;50.804;7.126;2024-03-08T03:03:04;3.40;99.90
33955;DHT22;20233;50.804;7.126;2024-03-08T03:05:30;3.30;99.90
33955;DHT22;20233;50.804;7.126;2024-03-08T03:07:56;3.40;99.90
33955;DHT22;20233;50.804;7.126;2024-03-08T03:10:21;3.30;99.90
33955;DHT22;20233;50.804;7.126;2024-03-08T03:12:47;3.20;99.90
33955;DHT22;20233;50.804;7.126;2024-03-08T03:15:17;3.20;99.90
33955;DHT22;20233;50.804;7.126;2024-03-08T03:17:50;3.30;99.90
33955;DHT22;20233;50.804;7.126;2024-03-08T03:20:19;3.20;99.90
33955;DHT22;20233;50.804;7.126;2024-03-08T03:22:51;3.30;99.90
33955;DHT22;20233;50.804;7.126;2024-03-08T03:25:21;3.20;99.90
33955;DHT22;20233;50.804;7.126;2024-03-08T03:27:54;3.20;99.90
33955;DHT22;20233;50.804;7.126;2024-03-08T03:30:27;3.10;99.90
33955;DHT22;20233;50.804;7.126;2024-03-08T03:32:59;3.10;99.90
33955;DHT22;20233;50.804;7.126;2024-03-08T03:35:27;3.10;99.90
33955;DHT22;20233;50.804;7.126;2024-03-08T03:37:53;3.00;99.90
33955;DHT22;20233;50.804;7.126;2024-03-08T03:40:38;2.90;99.90
33955;DHT22;20233;50.804;7.126;2024-03-08T03:43:05;2.90;99.90
33955;DHT22;20233;50.804;7.126;2024-03-08T03:45:31;2.90;99.90
33955;DHT22;20233;50.804;7.126;2024-03-08T03:48:03;2.90;99.90
33955;DHT22;20233;50.804;7.126;2024-03-08T03:50:29;2.90;99.90
33955;DHT22;20233;50.804;7.126;2024-03-08T03:52:54;2.90;99.90
33955;DHT22;20233;50.804;7.126;2024-03-08T03:55:20;2.90;99.90
33955;DHT22;20233;50.804;7.126;2024-03-08T03:57:47;2.90;99.90
33955;DHT22;20233;50.804;7.126;2024-03-08T04:00:13;2.90;99.90
33955;DHT22;20233;50.804;7.126;2024-03-08T04:02:39;2.90;99.90
33955;DHT22;20233;50.804;7.126;2024-03-08T04:05:06;2.90;99.90
33955;DHT22;20233;50.804;7.126;2024-03-08T04:07:32;2.80;99.90
33955;DHT22;20233;50.804;7.126;2024-03-08T04:09:58;2.80;99.90
33955;DHT22;20233;50.804;7.126;2024-03-08T04:12:23;2.90;99.90
33955;DHT22;20233;50.804;7.126;2024-03-08T04:14:49;2.80;99.90
33955;DHT22;20233;50.804;7.126;2024-03-08T04:17:15;2.80;99.90
33955;DHT22;20233;50.804;7.126;2024-03-08T04:19:40;2.70;99.90
33955;DHT22;20233;50.804;7.126;2024-03-08T04:22:06;2.60;99.90
33955;DHT22;20233;50.804;7.126;2024-03-08T04:24:33;2.60;99.90
33955;DHT22;20233;50.804;7.126;2024-03-08T04:31:50;2.70;99.90
33955;DHT22;20233;50.804;7.126;2024-03-08T04:34:20;2.80;99.90
33955;DHT22;20233;50.804;7.126;2024-03-08T04:36:45;2.70;99.90
33955;DHT22;20233;50.804;7.126;2024-03-08T04:41:38;2.40;99.90
33955;DHT22;20233;50.804;7.126;2024-03-08T04:44:04;2.40;99.90
33955;DHT22;20233;50.804;7.126;2024-03-08T04:46:30;2.30;99.90
33955;DHT22;20233;50.804;7.126;2024-03-08T05:01:07;2.50;99.90
33955;DHT22;20233;50.804;7.126;2024-03-08T05:08:27;2.50;99.90
33955;DHT22;20233;50.804;7.126;2024-03-08T05:10:53;2.60;99.90
33955;DHT22;20233;50.804;7.126;2024-03-08T05:13:19;2.60;99.90
33955;DHT22;20233;50.804;7.126;2024-03-08T05:15:48;2.40;99.90
33955;DHT22;20233;50.804;7.126;2024-03-08T05:23:07;2.30;99.90
33955;DHT22;20233;50.804;7.126;2024-03-08T05:27:59;2.20;99.90
33955;DHT22;20233;50.804;7.126;2024-03-08T05:30:25;2.30;99.90
33955;DHT22;20233;50.804;7.126;2024-03-08T05:32:50;2.20;99.90
33955;DHT22;20233;50.804;7.126;2024-03-08T05:35:16;2.30;99.90
33955;DHT22;20233;50.804;7.126;2024-03-08T05:37:42;2.10;99.90
33955;DHT22;20233;50.804;7.126;2024-03-08T05:40:08;2.10;99.90
33955;DHT22;20233;50.804;7.126;2024-03-08T05:42:38;2.10;99.90
33955;DHT22;20233;50.804;7.126;2024-03-08T05:45:04;2.10;99.90
33955;DHT22;20233;50.804;7.126;2024-03-08T05:47:31;2.10;99.90
33955;DHT22;20233;50.804;7.126;2024-03-08T05:49:58;2.00;99.90
33955;DHT22;20233;50.804;7.126;2024-03-08T05:52:24;2.00;99.90
33955;DHT22;20233;50.804;7.126;2024-03-08T05:54:51;2.00;99.90
33955;DHT22;20233;50.804;7.126;2024-03-08T05:57:17;1.50;99.90
33955;DHT22;20233;50.804;7.126;2024-03-08T05:59:42;2.00;99.90
33955;DHT22;20233;50.804;7.126;2024-03-08T06:02:08;2.10;99.90
33955;DHT22;20233;50.804;7.126;2024-03-08T06:04:33;2.00;99.90
33955;DHT22;20233;50.804;7.126;2024-03-08T06:06:59;2.00;99.90
33955;DHT22;20233;50.804;7.126;2024-03-08T06:09:25;2.00;99.90
33955;DHT22;20233;50.804;7.126;2024-03-08T06:11:51;2.00;99.90
33955;DHT22;20233;50.804;7.126;2024-03-08T06:14:18;1.80;99.90
33955;DHT22;20233;50.804;7.126;2024-03-08T06:16:47;2.00;99.90
33955;DHT22;20233;50.804;7.126;2024-03-08T06:19:15;2.00;99.90
33955;DHT22;20233;50.804;7.126;2024-03-08T06:21:41;2.00;99.90
33955;DHT22;20233;50.804;7.126;2024-03-08T06:24:06;2.00;99.90
33955;DHT22;20233;50.804;7.126;2024-03-08T06:26:32;2.00;99.90
33955;DHT22;20233;50.804;7.126;2024-03-08T06:28:59;2.20;99.90
33955;DHT22;20233;50.804;7.126;2024-03-08T06:31:25;2.10;99.90
33955;DHT22;20233;50.804;7.126;2024-03-08T06:33:51;2.10;99.90
33955;DHT22;20233;50.804;7.126;2024-03-08T06:36:19;2.10;99.90
33955;DHT22;20233;50.804;7.126;2024-03-08T06:38:50;2.10;99.90
33955;DHT22;20233;50.804;7.126;2024-03-08T06:41:16;2.30;99.90
33955;DHT22;20233;50.804;7.126;2024-03-08T06:43:45;2.20;99.90
33955;DHT22;20233;50.804;7.126;2024-03-08T06:46:11;2.30;99.90
33955;DHT22;20233;50.804;7.126;2024-03-08T06:48:40;2.40;99.90
33955;DHT22;20233;50.804;7.126;2024-03-08T06:51:05;2.30;99.90
33955;DHT22;20233;50.804;7.126;2024-03-08T06:53:31;2.40;99.90
33955;DHT22;20233;50.804;7.126;2024-03-08T06:56:00;2.40;99.90
33955;DHT22;20233;50.804;7.126;2024-03-08T06:58:26;2.40;99.90
33955;DHT22;20233;50.804;7.126;2024-03-08T07:00:53;2.50;99.90
33955;DHT22;20233;50.804;7.126;2024-03-08T07:03:19;2.60;99.90
33955;DHT22;20233;50.804;7.126;2024-03-08T07:05:44;2.60;99.90
33955;DHT22;20233;50.804;7.126;2024-03-08T07:08:10;2.60;99.90
33955;DHT22;20233;50.804;7.126;2024-03-08T07:10:38;2.60;99.90
33955;DHT22;20233;50.804;7.126;2024-03-08T07:13:07;2.70;99.90
33955;DHT22;20233;50.804;7.126;2024-03-08T07:15:32;2.70;99.90
33955;DHT22;20233;50.804;7.126;2024-03-08T07:17:58;2.80;99.90
33955;DHT22;20233;50.804;7.126;2024-03-08T07:20:25;2.90;99.90
33955;DHT22;20233;50.804;7.126;2024-03-08T07:22:50;2.90;99.90
33955;DHT22;20233;50.804;7.126;2024-03-08T07:25:17;3.00;99.90
33955;DHT22;20233;50.804;7.126;2024-03-08T07:27:53;3.10;99.90
33955;DHT22;20233;50.804;7.126;2024-03-08T07:30:20;3.10;99.90
33955;DHT22;20233;50.804;7.126;2024-03-08T07:33:05;3.20;99.90
33955;DHT22;20233;50.804;7.126;2024-03-08T07:35:32;3.30;99.90
33955;DHT22;20233;50.804;7.126;2024-03-08T07:37:58;3.30;99.90
33955;DHT22;20233;50.804;7.126;2024-03-08T07:40:25;3.40;99.90
33955;DHT22;20233;50.804;7.126;2024-03-08T07:42:52;3.50;99.90
33955;DHT22;20233;50.804;7.126;2024-03-08T07:45:18;3.50;99.90
33955;DHT22;20233;50.804;7.126;2024-03-08T07:47:43;3.60;99.90
33955;DHT22;20233;50.804;7.126;2024-03-08T07:50:09;3.70;99.90
33955;DHT22;20233;50.804;7.126;2024-03-08T07:52:35;3.70;99.90
33955;DHT22;20233;50.804;7.126;2024-03-08T07:55:03;3.80;99.90
33955;DHT22;20233;50.804;7.126;2024-03-08T07:57:31;3.80;99.90
33955;DHT22;20233;50.804;7.126;2024-03-08T07:59:57;3.90;99.90
33955;DHT22;20233;50.804;7.126;2024-03-08T08:02:23;3.90;99.90
33955;DHT22;20233;50.804;7.126;2024-03-08T08:04:48;4.10;99.90
33955;DHT22;20233;50.804;7.126;2024-03-08T08:07:14;4.10;99.90
33955;DHT22;20233;50.804;7.126;2024-03-08T08:09:40;4.10;99.90
33955;DHT22;20233;50.804;7.126;2024-03-08T08:12:08;4.30;99.90
33955;DHT22;20233;50.804;7.126;2024-03-08T08:14:38;4.20;99.90
33955;DHT22;20233;50.804;7.126;2024-03-08T08:17:04;4.40;99.90
33955;DHT22;20233;50.804;7.126;2024-03-08T08:19:30;4.50;99.90
33955;DHT22;20233;50.804;7.126;2024-03-08T08:21:57;4.50;99.90
33955;DHT22;20233;50.804;7.126;2024-03-08T08:24:23;4.60;99.90
33955;DHT22;20233;50.804;7.126;2024-03-08T08:26:49;4.60;99.90
33955;DHT22;20233;50.804;7.126;2024-03-08T08:29:14;4.90;99.90
33955;DHT22;20233;50.804;7.126;2024-03-08T08:31:40;4.80;99.90
33955;DHT22;20233;50.804;7.126;2024-03-08T08:34:05;4.90;99.90
33955;DHT22;20233;50.804;7.126;2024-03-08T08:36:32;5.00;99.90
33955;DHT22;20233;50.804;7.126;2024-03-08T08:38:57;5.10;99.90
33955;DHT22;20233;50.804;7.126;2024-03-08T08:41:24;5.20;99.90
33955;DHT22;20233;50.804;7.126;2024-03-08T08:43:50;5.30;99.90
33955;DHT22;20233;50.804;7.126;2024-03-08T08:46:19;5.40;99.90
33955;DHT22;20233;50.804;7.126;2024-03-08T08:48:45;5.40;99.90
33955;DHT22;20233;50.804;7.126;2024-03-08T08:51:11;5.50;99.90
33955;DHT22;20233;50.804;7.126;2024-03-08T08:53:41;5.50;99.90
33955;DHT22;20233;50.804;7.126;2024-03-08T08:56:11;5.70;99.90
33955;DHT22;20233;50.804;7.126;2024-03-08T08:58:39;5.80;99.90
33955;DHT22;20233;50.804;7.126;2024-03-08T09:01:06;5.90;99.90
33955;DHT22;20233;50.804;7.126;2024-03-08T09:03:33;6.00;99.90
33955;DHT22;20233;50.804;7.126;2024-03-08T09:06:00;6.10;99.90
33955;DHT22;20233;50.804;7.126;2024-03-08T09:08:25;6.20;99.90
33955;DHT22;20233;50.804;7.126;2024-03-08T09:10:51;6.30;99.90
33955;DHT22;20233;50.804;7.126;2024-03-08T09:13:17;6.40;99.90
33955;DHT22;20233;50.804;7.126;2024-03-08T09:15:43;6.50;99.90
33955;DHT22;20233;50.804;7.126;2024-03-08T09:18:09;6.50;99.90
33955;DHT22;20233;50.804;7.126;2024-03-08T09:20:35;6.70;99.90
33955;DHT22;20233;50.804;7.126;2024-03-08T09:23:02;6.70;99.90
33955;DHT22;20233;50.804;7.126;2024-03-08T09:25:29;6.80;99.90
33955;DHT22;20233;50.804;7.126;2024-03-08T09:27:54;7.00;99.90
33955;DHT22;20233;50.804;7.126;2024-03-08T09:30:20;7.10;99.90
33955;DHT22;20233;50.804;7.126;2024-03-08T09:32:47;7.30;99.90
33955;DHT22;20233;50.804;7.126;2024-03-08T09:35:18;7.40;99.90
33955;DHT22;20233;50.804;7.126;2024-03-08T09:37:44;7.50;99.90
33955;DHT22;20233;50.804;7.126;2024-03-08T09:40:12;7.50;99.90
33955;DHT22;20233;50.804;7.126;2024-03-08T09:42:41;7.60;99.90
33955;DHT22;20233;50.804;7.126;2024-03-08T09:45:11;7.70;99.90
33955;DHT22;20233;50.804;7.126;2024-03-08T09:47:42;7.80;99.90
33955;DHT22;20233;50.804;7.126;2024-03-08T09:50:08;7.80;99.90
33955;DHT22;20233;50.804;7.126;2024-03-08T09:52:37;7.90;99.90
33955;DHT22;20233;50.804;7.126;2024-03-08T09:55:07;8.00;99.90
33955;DHT22;20233;50.804;7.126;2024-03-08T09:57:36;8.10;99.90
33955;DHT22;20233;50.804;7.126;2024-03-08T10:00:06;8.20;99.90
33955;DHT22;20233;50.804;7.126;2024-03-08T10:02:50;8.30;99.90
33955;DHT22;20233;50.804;7.126;2024-03-08T10:05:18;8.40;99.90
33955;DHT22;20233;50.804;7.126;2024-03-08T10:07:44;8.50;99.90
33955;DHT22;20233;50.804;7.126;2024-03-08T10:10:09;8.60;99.90
33955;DHT22;20233;50.804;7.126;2024-03-08T10:12:38;8.60;99.90
33955;DHT22;20233;50.804;7.126;2024-03-08T10:15:08;8.70;99.90
33955;DHT22;20233;50.804;7.126;2024-03-08T10:17:37;8.70;99.90
33955;DHT22;20233;50.804;7.126;2024-03-08T10:20:02;8.80;99.90
33955;DHT22;20233;50.804;7.126;2024-03-08T10:22:30;8.90;99.90
33955;DHT22;20233;50.804;7.126;2024-03-08T10:24:57;8.90;99.90
33955;DHT22;20233;50.804;7.126;2024-03-08T10:27:23;9.00;99.90
33955;DHT22;20233;50.804;7.126;2024-03-08T10:29:48;9.10;99.90
33955;DHT22;20233;50.804;7.126;2024-03-08T10:32:16;9.20;99.90
33955;DHT22;20233;50.804;7.126;2024-03-08T10:34:41;9.10;99.90
33955;DHT22;20233;50.804;7.126;2024-03-08T10:37:08;9.20;99.90
33955;DHT22;20233;50.804;7.126;2024-03-08T10:39:38;9.20;99.90
33955;DHT22;20233;50.804;7.126;2024-03-08T10:42:12;9.20;99.90
33955;DHT22;20233;50.804;7.126;2024-03-08T10:44:49;9.30;99.90
33955;DHT22;20233;50.804;7.126;2024-03-08T10:47:26;9.30;99.90
33955;DHT22;20233;50.804;7.126;2024-03-08T10:50:17;9.30;99.90
33955;DHT22;20233;50.804;7.126;2024-03-08T10:52:50;9.40;99.90
33955;DHT22;20233;50.804;7.126;2024-03-08T10:55:18;9.50;99.90
33955;DHT22;20233;50.804;7.126;2024-03-08T10:57:46;9.50;99.90
33955;DHT22;20233;50.804;7.126;2024-03-08T11:00:12;9.60;99.90
33955;DHT22;20233;50.804;7.126;2024-03-08T11:02:38;9.60;99.90
33955;DHT22;20233;50.804;7.126;2024-03-08T11:05:04;9.70;99.90
33955;DHT22;20233;50.804;7.126;2024-03-08T11:07:35;9.70;99.90
33955;DHT22;20233;50.804;7.126;2024-03-08T11:10:04;9.70;99.90
33955;DHT22;20233;50.804;7.126;2024-03-08T11:12:37;9.80;99.90
33955;DHT22;20233;50.804;7.126;2024-03-08T11:15:12;9.90;99.90
33955;DHT22;20233;50.804;7.126;2024-03-08T11:17:50;10.00;99.90
33955;DHT22;20233;50.804;7.126;2024-03-08T11:20:18;10.00;99.70
33955;DHT22;20233;50.804;7.126;2024-03-08T11:22:52;10.20;99.90
33955;DHT22;20233;50.804;7.126;2024-03-08T11:25:35;10.20;98.10
33955;DHT22;20233;50.804;7.126;2024-03-08T11:28:13;10.30;98.60
33955;DHT22;20233;50.804;7.126;2024-03-08T11:30:47;10.40;99.20
33955;DHT22;20233;50.804;7.126;2024-03-08T11:33:35;10.40;97.80
33955;DHT22;20233;50.804;7.126;2024-03-08T11:36:14;10.50;97.90
33955;DHT22;20233;50.804;7.126;2024-03-08T11:38:48;10.50;97.60
33955;DHT22;20233;50.804;7.126;2024-03-08T11:41:23;10.60;96.50
33955;DHT22;20233;50.804;7.126;2024-03-08T11:44:01;10.70;95.70
33955;DHT22;20233;50.804;7.126;2024-03-08T11:46:27;10.70;96.20
33955;DHT22;20233;50.804;7.126;2024-03-08T11:48:54;10.80;95.20
33955;DHT22;20233;50.804;7.126;2024-03-08T11:51:22;10.80;94.40
33955;DHT22;20233;50.804;7.126;2024-03-08T11:53:49;10.90;94.40
33955;DHT22;20233;50.804;7.126;2024-03-08T11:56:16;11.00;94.00
33955;DHT22;20233;50.804;7.126;2024-03-08T11:58:55;11.20;93.20
33955;DHT22;20233;50.804;7.126;2024-03-08T12:01:22;11.10;91.60
33955;DHT22;20233;50.804;7.126;2024-03-08T12:03:56;11.00;90.90
33955;DHT22;20233;50.804;7.126;2024-03-08T12:06:24;11.10;90.80
33955;DHT22;20233;50.804;7.126;2024-03-08T12:08:50;11.20;90.70
33955;DHT22;20233;50.804;7.126;2024-03-08T12:11:17;11.30;90.60
33955;DHT22;20233;50.804;7.126;2024-03-08T12:13:48;11.30;87.00
33955;DHT22;20233;50.804;7.126;2024-03-08T12:16:19;11.40;88.70
33955;DHT22;20233;50.804;7.126;2024-03-08T12:18:47;11.40;90.10
33955;DHT22;20233;50.804;7.126;2024-03-08T12:21:14;11.50;90.10
33955;DHT22;20233;50.804;7.126;2024-03-08T12:23:44;11.70;89.40
33955;DHT22;20233;50.804;7.126;2024-03-08T12:26:17;11.80;90.40
33955;DHT22;20233;50.804;7.126;2024-03-08T12:28:45;11.80;88.20
33955;DHT22;20233;50.804;7.126;2024-03-08T12:31:15;11.90;89.30
33955;DHT22;20233;50.804;7.126;2024-03-08T12:36:18;12.00;99.90
33955;DHT22;20233;50.804;7.126;2024-03-08T12:41:18;12.00;94.60
33955;DHT22;20233;50.804;7.126;2024-03-08T12:43:48;12.10;92.70
33955;DHT22;20233;50.804;7.126;2024-03-08T12:46:20;12.10;91.40
33955;DHT22;20233;50.804;7.126;2024-03-08T12:48:47;12.10;96.20
33955;DHT22;20233;50.804;7.126;2024-03-08T12:51:17;12.10;97.00
33955;DHT22;20233;50.804;7.126;2024-03-08T12:53:43;12.20;97.80
33955;DHT22;20233;50.804;7.126;2024-03-08T12:56:10;12.30;97.20
33955;DHT22;20233;50.804;7.126;2024-03-08T13:01:05;12.70;84.10
33955;DHT22;20233;50.804;7.126;2024-03-08T13:03:35;12.70;74.00
33955;DHT22;20233;50.804;7.126;2024-03-08T13:06:03;12.80;72.90
33955;DHT22;20233;50.804;7.126;2024-03-08T13:08:29;12.80;65.60
33955;DHT22;20233;50.804;7.126;2024-03-08T13:10:56;12.80;66.80
33955;DHT22;20233;50.804;7.126;2024-03-08T13:13:22;12.80;60.00
33955;DHT22;20233;50.804;7.126;2024-03-08T13:15:48;12.70;58.40
33955;DHT22;20233;50.804;7.126;2024-03-08T13:18:14;12.70;58.90
33955;DHT22;20233;50.804;7.126;2024-03-08T13:20:41;12.80;57.40
33955;DHT22;20233;50.804;7.126;2024-03-08T13:23:09;12.80;55.90
33955;DHT22;20233;50.804;7.126;2024-03-08T13:25:34;12.70;55.00
33955;DHT22;20233;50.804;7.126;2024-03-08T13:28:04;12.70;53.70
33955;DHT22;20233;50.804;7.126;2024-03-08T13:30:30;12.60;53.50
33955;DHT22;20233;50.804;7.126;2024-03-08T13:32:56;12.70;51.60
33955;DHT22;20233;50.804;7.126;2024-03-08T13:35:21;12.70;49.30
33955;DHT22;20233;50.804;7.126;2024-03-08T13:37:52;12.80;49.70
33955;DHT22;20233;50.804;7.126;2024-03-08T13:40:18;12.80;49.40
33955;DHT22;20233;50.804;7.126;2024-03-08T13:42:46;12.70;48.10
33955;DHT22;20233;50.804;7.126;2024-03-08T13:45:12;12.90;50.20
33955;DHT22;20233;50.804;7.126;2024-03-08T13:47:38;12.90;48.30
33955;DHT22;20233;50.804;7.126;2024-03-08T13:50:07;12.80;46.90
33955;DHT22;20233;50.804;7.126;2024-03-08T13:52:37;12.90;45.30
33955;DHT22;20233;50.804;7.126;2024-03-08T13:55:04;12.90;47.10
33955;DHT22;20233;50.804;7.126;2024-03-08T13:57:30;13.00;45.30
33955;DHT22;20233;50.804;7.126;2024-03-08T13:59:57;12.90;48.30
33955;DHT22;20233;50.804;7.126;2024-03-08T14:02:23;13.00;47.70
33955;DHT22;20233;50.804;7.126;2024-03-08T14:04:53;13.00;46.80
33955;DHT22;20233;50.804;7.126;2024-03-08T14:07:20;13.10;44.90
33955;DHT22;20233;50.804;7.126;2024-03-08T14:09:46;13.10;44.40
33955;DHT22;20233;50.804;7.126;2024-03-08T14:12:11;13.20;44.20
33955;DHT22;20233;50.804;7.126;2024-03-08T14:14:37;13.00;39.70
33955;DHT22;20233;50.804;7.126;2024-03-08T14:17:03;12.90;37.50
33955;DHT22;20233;50.804;7.126;2024-03-08T14:19:29;13.00;38.20
33955;DHT22;20233;50.804;7.126;2024-03-08T14:21:56;13.00;39.20
33955;DHT22;20233;50.804;7.126;2024-03-08T14:24:22;13.10;37.40
33955;DHT22;20233;50.804;7.126;2024-03-08T14:26:49;13.00;36.30
33955;DHT22;20233;50.804;7.126;2024-03-08T14:29:15;13.00;37.40
33955;DHT22;20233;50.804;7.126;2024-03-08T14:31:41;13.00;34.50
33955;DHT22;20233;50.804;7.126;2024-03-08T14:34:08;13.10;33.60
33955;DHT22;20233;50.804;7.126;2024-03-08T14:36:34;13.10;34.60
33955;DHT22;20233;50.804;7.126;2024-03-08T14:39:00;13.10;31.40
33955;DHT22;20233;50.804;7.126;2024-03-08T14:41:26;13.00;30.50
33955;DHT22;20233;50.804;7.126;2024-03-08T14:43:52;13.10;32.30
33955;DHT22;20233;50.804;7.126;2024-03-08T14:46:19;13.10;30.00
33955;DHT22;20233;50.804;7.126;2024-03-08T14:48:46;13.10;29.00
33955;DHT22;20233;50.804;7.126;2024-03-08T14:51:13;13.10;27.40
33955;DHT22;20233;50.804;7.126;2024-03-08T14:53:42;13.10;27.80
33955;DHT22;20233;50.804;7.126;2024-03-08T14:56:11;13.00;27.60
33955;DHT22;20233;50.804;7.126;2024-03-08T14:58:37;12.90;27.50
33955;DHT22;20233;50.804;7.126;2024-03-08T15:01:04;13.00;26.90
33955;DHT22;20233;50.804;7.126;2024-03-08T15:03:34;12.90;27.10
33955;DHT22;20233;50.804;7.126;2024-03-08T15:06:01;13.00;26.10
33955;DHT22;20233;50.804;7.126;2024-03-08T15:08:27;12.90;26.60
33955;DHT22;20233;50.804;7.126;2024-03-08T15:10:53;13.00;25.30
33955;DHT22;20233;50.804;7.126;2024-03-08T15:13:24;12.90;26.70
33955;DHT22;20233;50.804;7.126;2024-03-08T15:15:53;13.00;27.30
33955;DHT22;20233;50.804;7.126;2024-03-08T15:18:23;13.00;30.00
33955;DHT22;20233;50.804;7.126;2024-03-08T15:20:54;13.10;26.90
33955;DHT22;20233;50.804;7.126;2024-03-08T15:23:20;13.10;27.60
33955;DHT22;20233;50.804;7.126;2024-03-08T15:25:47;13.10;27.50
33955;DHT22;20233;50.804;7.126;2024-03-08T15:28:15;13.00;28.00
33955;DHT22;20233;50.804;7.126;2024-03-08T15:30:41;12.90;26.90
33955;DHT22;20233;50.804;7.126;2024-03-08T15:33:12;12.80;25.80
33955;DHT22;20233;50.804;7.126;2024-03-08T15:35:38;12.80;23.70
33955;DHT22;20233;50.804;7.126;2024-03-08T15:38:04;12.60;26.80
33955;DHT22;20233;50.804;7.126;2024-03-08T15:40:30;12.60;26.30
33955;DHT22;20233;50.804;7.126;2024-03-08T15:42:59;12.60;27.10
33955;DHT22;20233;50.804;7.126;2024-03-08T15:45:25;12.50;29.30
33955;DHT22;20233;50.804;7.126;2024-03-08T15:47:53;12.50;28.30
33955;DHT22;20233;50.804;7.126;2024-03-08T15:50:19;12.50;27.80
33955;DHT22;20233;50.804;7.126;2024-03-08T15:52:49;12.50;27.70
33955;DHT22;20233;50.804;7.126;2024-03-08T15:55:18;12.50;28.80
33955;DHT22;20233;50.804;7.126;2024-03-08T15:57:50;12.50;27.60
33955;DHT22;20233;50.804;7.126;2024-03-08T16:00:17;12.40;28.50
33955;DHT22;20233;50.804;7.126;2024-03-08T16:03:00;12.40;26.20
33955;DHT22;20233;50.804;7.126;2024-03-08T16:05:28;12.40;27.80
33955;DHT22;20233;50.804;7.126;2024-03-08T16:07:54;12.40;28.60
33955;DHT22;20233;50.804;7.126;2024-03-08T16:10:21;12.50;29.10
33955;DHT22;20233;50.804;7.126;2024-03-08T16:12:49;12.50;30.90
33955;DHT22;20233;50.804;7.126;2024-03-08T16:15:15;12.50;30.00
33955;DHT22;20233;50.804;7.126;2024-03-08T16:17:41;12.50;29.10
33955;DHT22;20233;50.804;7.126;2024-03-08T16:20:06;12.30;29.10
33955;DHT22;20233;50.804;7.126;2024-03-08T16:22:37;12.40;27.60